createdAt,value
2019-03-22T00:00:57.812Z,2.98
2019-03-22T00:03:25.677Z,2.98
2019-03-22T00:05:53.549Z,2.23
2019-03-22T00:08:21.501Z,2.75
2019-03-22T00:10:49.339Z,2.52
2019-03-22T00:13:17.222Z,1.97
2019-03-22T00:15:45.144Z,2.13
2019-03-22T00:18:13.002Z,2.58
2019-03-22T00:20:40.899Z,2.33
2019-03-22T00:23:08.799Z,2.28
2019-03-22T00:25:36.867Z,1.76
2019-03-22T00:28:04.702Z,2.45
2019-03-22T00:30:32.602Z,1.85
2019-03-22T00:33:00.485Z,1.88
2019-03-22T00:35:28.320Z,2.22
2019-03-22T00:37:56.185Z,2.68
2019-03-22T00:40:24.036Z,2.49
2019-03-22T00:42:51.922Z,2.24
2019-03-22T00:45:19.766Z,1.81
2019-03-22T00:47:47.565Z,1.78
2019-03-22T00:50:15.583Z,1.87
2019-03-22T00:52:43.435Z,2.05
2019-03-22T00:55:11.379Z,2.09
2019-03-22T00:57:39.261Z,1.84
2019-03-22T01:00:08.584Z,2.04
2019-03-22T01:02:36.455Z,1.51
2019-03-22T01:05:06.219Z,1.98
2019-03-22T01:07:34.081Z,1.51
2019-03-22T01:10:01.921Z,1.86
2019-03-22T01:12:29.819Z,2.19
2019-03-22T01:14:57.639Z,1.76
2019-03-22T01:17:25.482Z,1.91
2019-03-22T01:19:53.348Z,2.10
2019-03-22T01:22:21.242Z,2.23
2019-03-22T01:24:49.067Z,1.85
2019-03-22T01:27:16.939Z,1.92
2019-03-22T01:29:44.765Z,2.16
2019-03-22T01:32:12.640Z,1.58
2019-03-22T01:34:40.481Z,2.12
2019-03-22T01:37:08.341Z,2.29
2019-03-22T01:39:36.239Z,2.53
2019-03-22T01:42:04.245Z,2.35
2019-03-22T01:44:32.111Z,1.77
2019-03-22T01:46:59.981Z,1.27
2019-03-22T01:49:27.879Z,1.75
2019-03-22T01:51:56.211Z,1.73
2019-03-22T01:54:24.128Z,1.18
2019-03-22T01:56:52.814Z,1.69
2019-03-22T01:59:20.722Z,1.36
2019-03-22T02:01:48.565Z,1.07
2019-03-22T02:04:16.433Z,1.81
2019-03-22T02:06:44.387Z,1.71
2019-03-22T02:09:12.233Z,1.77
2019-03-22T02:11:40.099Z,1.55
2019-03-22T02:14:07.984Z,1.72
2019-03-22T02:16:35.979Z,1.52
2019-03-22T02:19:04.028Z,1.57
2019-03-22T02:21:31.859Z,1.61
2019-03-22T02:23:59.739Z,1.38
2019-03-22T02:26:27.599Z,1.26
2019-03-22T02:28:55.503Z,1.36
2019-03-22T02:31:23.339Z,1.49
2019-03-22T02:33:51.176Z,1.54
2019-03-22T02:36:19.258Z,1.70
2019-03-22T02:38:47.126Z,1.63
2019-03-22T02:41:14.994Z,1.26
2019-03-22T02:43:42.913Z,1.23
2019-03-22T02:46:10.780Z,1.47
2019-03-22T02:48:38.659Z,1.51
2019-03-22T02:51:06.584Z,1.37
2019-03-22T02:53:34.446Z,1.35
2019-03-22T02:56:02.504Z,1.34
2019-03-22T02:58:30.584Z,1.36
2019-03-22T03:00:58.760Z,1.03
2019-03-22T03:03:26.981Z,0.90
2019-03-22T03:05:54.826Z,1.41
2019-03-22T03:08:22.680Z,1.23
2019-03-22T03:10:50.551Z,0.91
2019-03-22T03:13:18.469Z,1.32
2019-03-22T03:15:46.303Z,1.56
2019-03-22T03:18:14.168Z,1.51
2019-03-22T03:20:42.063Z,0.82
2019-03-22T03:23:09.907Z,0.66
2019-03-22T03:25:37.763Z,0.70
2019-03-22T03:28:05.647Z,0.68
2019-03-22T03:30:33.458Z,0.92
2019-03-22T03:33:01.948Z,1.02
2019-03-22T03:35:29.753Z,1.22
2019-03-22T03:37:57.610Z,0.57
2019-03-22T03:40:25.502Z,0.78
2019-03-22T03:42:53.451Z,0.51
2019-03-22T03:45:34.742Z,0.84
2019-03-22T03:48:02.989Z,0.84
2019-03-22T03:50:30.842Z,0.45
2019-03-22T03:52:58.774Z,0.56
2019-03-22T03:55:26.722Z,1.22
2019-03-22T03:57:54.544Z,0.46
2019-03-22T04:00:22.418Z,0.90
2019-03-22T04:02:50.279Z,0.52
2019-03-22T04:05:18.150Z,0.20
2019-03-22T04:07:46.143Z,0.33
2019-03-22T04:10:14.043Z,0.35
2019-03-22T04:12:41.959Z,0.96
2019-03-22T04:15:09.903Z,0.56
2019-03-22T04:17:37.761Z,0.69
2019-03-22T04:20:05.893Z,0.33
2019-03-22T04:22:36.336Z,0.17
2019-03-22T04:25:03.761Z,0.72
2019-03-22T04:27:31.689Z,0.31
2019-03-22T04:29:59.559Z,0.19
2019-03-22T04:32:27.411Z,0.19
2019-03-22T04:34:55.655Z,0.37
2019-03-22T04:37:23.532Z,0.82
2019-03-22T04:39:51.356Z,0.48
2019-03-22T04:42:19.335Z,0.58
2019-03-22T04:44:47.242Z,0.07
2019-03-22T04:47:17.322Z,0.15
2019-03-22T04:49:45.759Z,0.52
2019-03-22T04:52:14.256Z,0.53
2019-03-22T04:54:42.859Z,0.98
2019-03-22T04:57:11.979Z,0.50
2019-03-22T04:59:41.042Z,0.28
2019-03-22T05:02:09.542Z,0.18
2019-03-22T05:04:38.960Z,0.26
2019-03-22T05:07:07.374Z,0.64
2019-03-22T05:09:36.287Z,0.25
2019-03-22T05:12:04.380Z,0.55
2019-03-22T05:14:33.760Z,0.66
2019-03-22T05:17:01.770Z,0.58
2019-03-22T05:19:31.445Z,0.65
2019-03-22T05:22:00.252Z,0.45
2019-03-22T05:24:28.863Z,0.62
2019-03-22T05:26:58.022Z,0.37
2019-03-22T05:29:30.927Z,0.01
2019-03-22T05:32:12.001Z,0.37
2019-03-22T05:34:39.883Z,0.03
2019-03-22T05:37:07.743Z,0.70
2019-03-22T05:39:35.661Z,0.64
2019-03-22T05:42:03.747Z,0.35
2019-03-22T05:44:31.599Z,-0.02
2019-03-22T05:46:59.527Z,-0.03
2019-03-22T05:49:27.524Z,0.01
2019-03-22T05:51:55.408Z,0.08
2019-03-22T05:54:23.298Z,0.48
2019-03-22T05:56:51.243Z,0.00
2019-03-22T05:59:19.136Z,0.44
2019-03-22T06:01:47.050Z,0.41
2019-03-22T06:04:14.966Z,0.58
2019-03-22T06:06:42.796Z,0.54
2019-03-22T06:09:10.632Z,0.76
2019-03-22T06:11:38.561Z,0.78
2019-03-22T06:14:06.484Z,0.38
2019-03-22T06:16:34.332Z,0.31
2019-03-22T06:19:02.221Z,0.13
2019-03-22T06:21:30.162Z,0.25
2019-03-22T06:23:58.070Z,0.30
2019-03-22T06:26:26.247Z,0.38
2019-03-22T06:28:54.125Z,0.51
2019-03-22T06:31:22.054Z,0.37
2019-03-22T06:33:49.939Z,0.52
2019-03-22T06:36:17.802Z,0.59
2019-03-22T06:38:45.671Z,0.33
2019-03-22T06:41:13.607Z,0.51
2019-03-22T06:43:41.427Z,0.75
2019-03-22T06:46:09.302Z,0.51
2019-03-22T06:48:37.300Z,0.10
2019-03-22T06:51:05.240Z,0.60
2019-03-22T06:53:33.518Z,0.45
2019-03-22T06:56:01.364Z,0.36
2019-03-22T06:58:29.243Z,0.65
2019-03-22T07:00:57.102Z,1.01
2019-03-22T07:03:25.009Z,1.11
2019-03-22T07:05:52.885Z,0.66
2019-03-22T07:08:20.742Z,0.50
2019-03-22T07:10:48.602Z,0.60
2019-03-22T07:13:16.501Z,0.42
2019-03-22T07:15:44.362Z,0.58
2019-03-22T07:18:12.243Z,0.70
2019-03-22T07:20:40.140Z,0.92
2019-03-22T07:23:07.979Z,0.82
2019-03-22T07:25:35.880Z,0.99
2019-03-22T07:28:04.074Z,0.90
2019-03-22T07:30:31.967Z,1.04
2019-03-22T07:32:59.902Z,1.08
2019-03-22T07:35:27.849Z,0.92
2019-03-22T07:37:55.725Z,1.13
2019-03-22T07:40:23.782Z,1.21
2019-03-22T07:42:51.934Z,1.30
2019-03-22T07:45:20.112Z,1.38
2019-03-22T07:47:48.354Z,1.48
2019-03-22T07:50:16.673Z,1.62
2019-03-22T07:52:44.752Z,1.91
2019-03-22T07:55:12.920Z,2.08
2019-03-22T07:57:40.996Z,2.48
2019-03-22T08:00:09.950Z,2.57
2019-03-22T08:02:38.146Z,2.70
2019-03-22T08:05:06.439Z,3.17
2019-03-22T08:07:34.471Z,3.49
2019-03-22T08:10:03.966Z,3.53
2019-03-22T08:12:32.353Z,3.45
2019-03-22T08:15:00.561Z,3.66
2019-03-22T08:17:28.680Z,3.70
2019-03-22T08:19:57.328Z,3.92
2019-03-22T08:22:25.614Z,4.15
2019-03-22T08:24:53.656Z,4.63
2019-03-22T08:27:22.173Z,4.81
2019-03-22T08:29:50.038Z,5.08
2019-03-22T08:32:18.042Z,5.02
2019-03-22T08:34:47.788Z,4.78
2019-03-22T08:37:15.656Z,5.41
2019-03-22T08:39:43.580Z,5.58
2019-03-22T08:42:11.486Z,5.57
2019-03-22T08:44:39.407Z,5.88
2019-03-22T08:47:07.450Z,6.02
2019-03-22T08:49:35.519Z,6.33
2019-03-22T08:52:04.265Z,6.16
2019-03-22T08:54:32.188Z,6.98
2019-03-22T08:57:00.087Z,7.49
2019-03-22T08:59:28.327Z,7.87
2019-03-22T09:01:56.180Z,7.63
2019-03-22T09:04:24.148Z,7.82
2019-03-22T09:06:52.093Z,7.95
2019-03-22T09:09:19.989Z,8.48
2019-03-22T09:11:47.862Z,8.39
2019-03-22T09:14:15.819Z,8.30
2019-03-22T09:16:43.757Z,8.56
2019-03-22T09:19:11.677Z,8.02
2019-03-22T09:21:39.607Z,8.91
2019-03-22T09:24:07.633Z,8.91
2019-03-22T09:26:47.182Z,8.76
2019-03-22T09:29:05.398Z,8.65
2019-03-22T09:31:33.372Z,9.27
2019-03-22T09:34:01.231Z,8.72
2019-03-22T09:36:29.123Z,8.90
2019-03-22T09:38:57.045Z,9.23
2019-03-22T09:41:24.989Z,9.13
2019-03-22T09:43:52.932Z,9.76
2019-03-22T09:46:20.813Z,9.51
2019-03-22T09:48:48.758Z,9.78
2019-03-22T09:51:16.654Z,9.98
2019-03-22T09:53:44.523Z,9.92
2019-03-22T09:56:12.883Z,10.12
2019-03-22T09:58:40.821Z,9.97
2019-03-22T10:01:08.822Z,10.54
2019-03-22T10:03:36.758Z,10.57
2019-03-22T10:06:04.699Z,10.81
2019-03-22T10:08:32.549Z,11.19
2019-03-22T10:11:00.432Z,11.16
2019-03-22T10:13:28.302Z,11.05
2019-03-22T10:15:56.122Z,11.12
2019-03-22T10:18:24.026Z,11.42
2019-03-22T10:20:52.183Z,11.17
2019-03-22T10:23:22.440Z,11.01
2019-03-22T10:25:49.905Z,11.47
2019-03-22T10:28:17.939Z,11.48
2019-03-22T10:30:45.894Z,11.39
2019-03-22T10:33:22.453Z,11.47
2019-03-22T10:35:43.605Z,11.38
2019-03-22T10:38:16.199Z,11.66
2019-03-22T10:40:41.446Z,11.99
2019-03-22T10:43:09.410Z,12.14
2019-03-22T10:45:37.395Z,12.19
2019-03-22T10:48:05.316Z,12.36
2019-03-22T10:50:33.165Z,12.82
2019-03-22T10:53:01.031Z,12.53
2019-03-22T10:55:30.536Z,12.68
2019-03-22T10:57:58.840Z,13.03
2019-03-22T11:00:26.700Z,12.72
2019-03-22T11:02:54.599Z,12.96
2019-03-22T11:05:22.472Z,12.96
2019-03-22T11:07:50.399Z,12.85
2019-03-22T11:10:18.384Z,13.27
2019-03-22T11:12:46.327Z,13.65
2019-03-22T11:15:14.406Z,13.82
2019-03-22T11:17:42.646Z,13.83
2019-03-22T11:20:13.582Z,13.80
2019-03-22T11:22:41.502Z,13.78
2019-03-22T11:25:09.901Z,13.75
2019-03-22T11:27:37.940Z,14.00
2019-03-22T11:30:08.949Z,14.02
2019-03-22T11:32:36.989Z,13.69
2019-03-22T11:35:05.761Z,13.76
2019-03-22T11:37:33.625Z,13.97
2019-03-22T11:40:01.471Z,14.04
2019-03-22T11:42:29.382Z,14.19
2019-03-22T11:44:58.442Z,14.15
2019-03-22T11:47:26.401Z,14.46
2019-03-22T11:49:54.302Z,14.48
2019-03-22T11:52:22.205Z,14.50
2019-03-22T11:54:50.117Z,14.49
2019-03-22T11:57:19.207Z,14.43
2019-03-22T11:59:47.110Z,14.95
2019-03-22T12:02:22.180Z,15.42
2019-03-22T12:04:44.837Z,15.00
2019-03-22T12:07:12.722Z,14.74
2019-03-22T12:09:40.694Z,14.89
2019-03-22T12:12:08.627Z,14.84
2019-03-22T12:14:36.481Z,14.99
2019-03-22T12:17:04.492Z,14.95
2019-03-22T12:19:32.426Z,14.99
2019-03-22T12:22:00.322Z,15.05
2019-03-22T12:24:28.324Z,15.10
2019-03-22T12:26:56.285Z,15.53
2019-03-22T12:29:24.137Z,15.10
2019-03-22T12:31:52.083Z,15.27
2019-03-22T12:34:20.065Z,15.35
2019-03-22T12:36:47.933Z,15.57
2019-03-22T12:39:15.825Z,15.56
2019-03-22T12:41:43.723Z,15.76
2019-03-22T12:44:11.692Z,15.69
2019-03-22T12:46:39.622Z,15.93
2019-03-22T12:49:07.639Z,15.87
2019-03-22T12:51:35.586Z,15.92
2019-03-22T12:54:03.599Z,15.69
2019-03-22T12:56:31.493Z,15.90
2019-03-22T12:58:59.486Z,16.24
2019-03-22T13:01:27.486Z,16.09
2019-03-22T13:03:55.379Z,16.14
2019-03-22T13:06:23.311Z,16.27
2019-03-22T13:08:51.259Z,16.21
2019-03-22T13:11:19.600Z,16.33
2019-03-22T13:13:47.525Z,16.57
2019-03-22T13:16:15.453Z,16.52
2019-03-22T13:18:50.167Z,16.47
2019-03-22T13:21:13.307Z,16.79
2019-03-22T13:23:41.204Z,16.63
2019-03-22T13:26:09.222Z,16.63
2019-03-22T13:28:37.139Z,16.49
2019-03-22T13:31:05.016Z,16.56
2019-03-22T13:33:32.984Z,16.56
2019-03-22T13:36:00.979Z,16.61
2019-03-22T13:38:28.959Z,16.64
2019-03-22T13:40:56.899Z,16.78
2019-03-22T13:43:24.753Z,16.96
2019-03-22T13:45:52.780Z,16.82
2019-03-22T13:48:20.691Z,16.86
2019-03-22T13:50:48.632Z,16.72
2019-03-22T13:53:16.571Z,16.98
2019-03-22T13:55:44.442Z,16.83
2019-03-22T13:58:12.341Z,16.89
2019-03-22T14:00:40.234Z,16.93
2019-03-22T14:03:08.161Z,16.82
2019-03-22T14:05:36.122Z,17.05
2019-03-22T14:08:04.222Z,17.11
2019-03-22T14:10:35.479Z,17.28
2019-03-22T14:13:04.341Z,17.29
2019-03-22T14:15:32.356Z,16.90
2019-03-22T14:18:00.611Z,17.02
2019-03-22T14:20:29.061Z,16.92
2019-03-22T14:22:56.991Z,17.13
2019-03-22T14:25:24.867Z,17.35
2019-03-22T14:27:52.784Z,17.06
2019-03-22T14:30:20.722Z,17.10
2019-03-22T14:32:48.591Z,17.11
2019-03-22T14:35:16.539Z,17.19
2019-03-22T14:37:44.417Z,17.39
2019-03-22T14:40:15.561Z,17.08
2019-03-22T14:42:42.183Z,16.88
2019-03-22T14:45:10.322Z,16.65
2019-03-22T14:47:38.293Z,16.78
2019-03-22T14:50:06.473Z,16.69
2019-03-22T14:52:34.506Z,16.71
2019-03-22T14:55:02.522Z,16.76
2019-03-22T14:57:30.526Z,16.65
2019-03-22T14:59:59.300Z,16.47
2019-03-22T15:02:27.492Z,16.55
2019-03-22T15:04:55.359Z,16.73
2019-03-22T15:07:23.269Z,16.75
2019-03-22T15:09:51.145Z,16.74
2019-03-22T15:12:19.048Z,16.61
2019-03-22T15:15:02.938Z,16.84
2019-03-22T15:18:05.315Z,16.75
2019-03-22T15:20:55.838Z,16.58
2019-03-22T15:23:46.436Z,16.75
2019-03-22T15:26:37.554Z,16.46
2019-03-22T15:32:09.353Z,16.41
2019-03-22T15:35:15.321Z,16.15
2019-03-22T15:38:09.017Z,16.12
2019-03-22T15:40:36.982Z,16.01
2019-03-22T15:43:04.944Z,15.99
2019-03-22T15:45:32.894Z,16.08
2019-03-22T15:48:00.762Z,16.22
2019-03-22T15:50:28.704Z,16.27
2019-03-22T15:52:56.623Z,16.41
2019-03-22T15:55:24.619Z,16.27
2019-03-22T15:57:52.479Z,15.97
2019-03-22T16:00:21.387Z,15.81
2019-03-22T16:02:49.442Z,15.74
2019-03-22T16:05:17.379Z,15.63
2019-03-22T16:07:45.336Z,15.72
2019-03-22T16:10:13.323Z,15.67
2019-03-22T16:12:41.205Z,15.38
2019-03-22T16:15:09.760Z,15.59
2019-03-22T16:17:37.674Z,15.56
2019-03-22T16:20:06.364Z,15.65
2019-03-22T16:22:35.389Z,15.61
2019-03-22T16:25:03.711Z,15.62
2019-03-22T16:27:31.721Z,15.62
2019-03-22T16:29:59.711Z,15.53
2019-03-22T16:32:27.694Z,15.49
2019-03-22T16:34:55.662Z,14.98
2019-03-22T16:37:23.636Z,14.75
2019-03-22T16:39:51.459Z,14.63
2019-03-22T16:42:19.419Z,14.62
2019-03-22T16:44:47.319Z,14.26
2019-03-22T16:47:15.239Z,14.35
2019-03-22T16:49:43.159Z,14.54
2019-03-22T16:52:11.086Z,14.47
2019-03-22T16:54:38.993Z,14.44
2019-03-22T16:57:06.902Z,14.30
2019-03-22T16:59:34.983Z,14.16
2019-03-22T17:02:03.377Z,14.09
2019-03-22T17:04:31.488Z,14.07
2019-03-22T17:06:59.490Z,14.07
2019-03-22T17:09:27.566Z,14.11
2019-03-22T17:11:55.645Z,13.73
2019-03-22T17:14:23.660Z,13.72
2019-03-22T17:16:52.111Z,13.49
2019-03-22T17:19:20.141Z,13.47
2019-03-22T17:21:48.175Z,13.70
2019-03-22T17:24:16.365Z,12.95
2019-03-22T17:26:44.394Z,12.86
2019-03-22T17:29:12.513Z,12.99
2019-03-22T17:31:40.653Z,12.79
2019-03-22T17:34:14.174Z,12.25
2019-03-22T17:36:38.882Z,12.27
2019-03-22T17:39:08.278Z,12.27
2019-03-22T17:41:36.402Z,11.50
2019-03-22T17:44:04.672Z,11.72
2019-03-22T17:46:32.956Z,11.93
2019-03-22T17:49:01.635Z,11.56
2019-03-22T17:51:30.273Z,11.92
2019-03-22T17:53:58.594Z,11.32
2019-03-22T17:56:27.738Z,11.36
2019-03-22T17:58:55.948Z,11.43
2019-03-22T18:01:24.252Z,11.32
2019-03-22T18:03:52.453Z,11.39
2019-03-22T18:06:20.591Z,10.57
2019-03-22T18:08:48.875Z,10.60
2019-03-22T18:11:17.140Z,10.74
2019-03-22T18:13:45.539Z,10.64
2019-03-22T18:16:13.855Z,10.43
2019-03-22T18:18:42.132Z,10.38
2019-03-22T18:21:10.535Z,10.54
2019-03-22T18:23:38.865Z,10.37
2019-03-22T18:26:07.373Z,10.39
2019-03-22T18:28:35.681Z,10.26
2019-03-22T18:31:04.166Z,10.09
2019-03-22T18:33:32.514Z,10.04
2019-03-22T18:36:00.930Z,10.19
2019-03-22T18:38:29.176Z,9.91
2019-03-22T18:40:57.501Z,10.04
2019-03-22T18:43:25.984Z,10.12
2019-03-22T18:45:54.320Z,10.06
2019-03-22T18:48:23.143Z,9.97
2019-03-22T18:50:56.809Z,9.68
2019-03-22T18:53:21.835Z,9.93
2019-03-22T18:55:50.845Z,10.04
2019-03-22T18:58:19.207Z,9.80
2019-03-22T19:00:49.649Z,9.98
2019-03-22T19:03:17.968Z,9.89
2019-03-22T19:05:46.782Z,10.03
2019-03-22T19:08:17.580Z,9.67
2019-03-22T19:10:46.084Z,9.76
2019-03-22T19:13:14.479Z,9.57
2019-03-22T19:15:42.848Z,9.56
2019-03-22T19:18:11.327Z,9.30
2019-03-22T19:20:40.826Z,9.41
2019-03-22T19:23:09.121Z,9.32
2019-03-22T19:25:37.502Z,9.44
2019-03-22T19:28:05.970Z,9.47
2019-03-22T19:30:34.425Z,9.72
2019-03-22T19:33:02.808Z,9.57
2019-03-22T19:35:31.432Z,9.28
2019-03-22T19:37:59.997Z,9.07
2019-03-22T19:40:28.397Z,8.80
2019-03-22T19:42:56.787Z,9.00
2019-03-22T19:45:24.983Z,8.88
2019-03-22T19:47:53.297Z,8.76
2019-03-22T19:50:21.668Z,8.98
2019-03-22T19:52:50.041Z,8.51
2019-03-22T19:55:18.598Z,8.31
2019-03-22T19:57:48.048Z,8.39
2019-03-22T20:00:17.160Z,8.41
2019-03-22T20:02:45.725Z,8.26
2019-03-22T20:05:21.887Z,7.90
2019-03-22T20:07:50.460Z,8.10
2019-03-22T20:10:19.839Z,7.81
2019-03-22T20:12:48.377Z,7.72
2019-03-22T20:15:18.842Z,7.63
2019-03-22T20:17:49.563Z,7.88
2019-03-22T20:20:18.789Z,7.65
2019-03-22T20:22:48.766Z,7.76
2019-03-22T20:25:17.317Z,7.95
2019-03-22T20:27:45.617Z,8.14
2019-03-22T20:30:14.336Z,7.70
2019-03-22T20:32:42.704Z,7.74
2019-03-22T20:35:16.311Z,8.03
2019-03-22T20:37:41.228Z,7.45
2019-03-22T20:40:10.108Z,7.51
2019-03-22T20:42:38.640Z,7.52
2019-03-22T20:45:09.186Z,7.76
2019-03-22T20:47:37.486Z,7.67
2019-03-22T20:50:06.357Z,7.94
2019-03-22T20:52:35.064Z,7.51
2019-03-22T20:55:03.762Z,7.54
2019-03-22T20:57:32.366Z,7.56
2019-03-22T21:00:00.774Z,7.75
2019-03-22T21:02:29.186Z,7.36
2019-03-22T21:04:57.499Z,7.52
2019-03-22T21:07:25.911Z,7.63
2019-03-22T21:09:54.867Z,7.83
2019-03-22T21:12:23.382Z,7.37
2019-03-22T21:14:51.647Z,7.26
2019-03-22T21:17:20.019Z,7.13
2019-03-22T21:19:48.349Z,7.44
2019-03-22T21:22:16.697Z,7.15
2019-03-22T21:24:47.396Z,7.32
2019-03-22T21:27:16.138Z,7.15
2019-03-22T21:29:44.743Z,7.03
2019-03-22T21:32:13.219Z,6.92
2019-03-22T21:34:43.940Z,6.53
2019-03-22T21:37:11.950Z,6.46
2019-03-22T21:39:40.102Z,6.67
2019-03-22T21:42:08.257Z,6.36
2019-03-22T21:44:36.372Z,6.73
2019-03-22T21:47:04.839Z,6.73
2019-03-22T21:49:32.811Z,6.80
2019-03-22T21:52:00.888Z,6.43
2019-03-22T21:54:29.052Z,6.78
2019-03-22T21:56:57.532Z,6.43
2019-03-22T21:59:25.498Z,6.37
2019-03-22T22:01:53.572Z,6.27
2019-03-22T22:04:21.586Z,5.98
2019-03-22T22:06:49.486Z,6.14
2019-03-22T22:09:17.391Z,6.52
2019-03-22T22:11:45.307Z,6.34
2019-03-22T22:14:13.262Z,6.51
2019-03-22T22:16:41.179Z,6.30
2019-03-22T22:19:09.068Z,6.37
2019-03-22T22:21:36.992Z,6.42
2019-03-22T22:24:04.883Z,5.75
2019-03-22T22:26:32.845Z,6.13
2019-03-22T22:29:00.724Z,6.09
2019-03-22T22:31:28.589Z,6.39
2019-03-22T22:33:56.446Z,6.12
2019-03-22T22:39:34.442Z,6.10
2019-03-22T22:42:02.367Z,6.25
2019-03-22T22:44:30.261Z,6.09
2019-03-22T22:46:58.392Z,6.01
2019-03-22T22:49:26.333Z,5.89
2019-03-22T22:51:54.251Z,5.91
2019-03-22T22:54:22.141Z,6.26
2019-03-22T22:56:50.042Z,5.78
2019-03-22T22:59:17.919Z,6.24
2019-03-22T23:01:45.859Z,5.98
2019-03-22T23:04:13.731Z,5.80
2019-03-22T23:06:41.626Z,5.80
2019-03-22T23:09:09.541Z,5.45
2019-03-22T23:11:37.399Z,5.56
2019-03-22T23:14:05.326Z,5.62
2019-03-22T23:16:33.184Z,5.91
2019-03-22T23:19:01.139Z,5.82
2019-03-22T23:21:29.043Z,5.55
2019-03-22T23:23:56.949Z,5.62
2019-03-22T23:26:24.881Z,5.09
2019-03-22T23:28:52.763Z,5.17
2019-03-22T23:31:22.299Z,4.98
2019-03-22T23:33:50.312Z,5.08
2019-03-22T23:36:20.524Z,5.14
2019-03-22T23:38:48.051Z,5.29
2019-03-22T23:41:15.891Z,5.18
2019-03-22T23:43:43.739Z,5.47
2019-03-22T23:46:11.742Z,4.97
2019-03-22T23:48:39.636Z,5.31
2019-03-22T23:51:07.552Z,4.79
2019-03-22T23:53:35.461Z,4.84
2019-03-22T23:56:03.366Z,4.96
2019-03-22T23:58:31.257Z,4.93
